sensor_id;sensor_type;location;lat;lon;timestamp;pressure;altitude;pressure_sealevel;temperature;humidity
12666;BME280;58531;59.050;17.416;2022-12-11T00:01:33;100672.50;;;-6.50;100.00
12666;BME280;58531;59.050;17.416;2022-12-11T00:04:01;100681.91;;;-6.45;100.00
12666;BME280;58531;59.050;17.416;2022-12-11T00:06:28;100676.41;;;-6.44;100.00
12666;BME280;58531;59.050;17.416;2022-12-11T00:08:56;100676.63;;;-6.49;100.00
12666;BME280;58531;59.050;17.416;2022-12-11T00:11:24;100682.25;;;-6.47;100.00
12666;BME280;58531;59.050;17.416;2022-12-11T00:13:51;100676.72;;;-6.45;100.00
12666;BME280;58531;59.050;17.416;2022-12-11T00:16:18;100679.31;;;-6.45;100.00
12666;BME280;58531;59.050;17.416;2022-12-11T00:18:45;100674.03;;;-6.37;100.00
12666;BME280;58531;59.050;17.416;2022-12-11T00:21:13;100678.94;;;-6.35;100.00
12666;BME280;58531;59.050;17.416;2022-12-11T00:23:41;100678.81;;;-6.39;100.00
12666;BME280;58531;59.050;17.416;2022-12-11T00:26:12;100680.97;;;-6.41;100.00
12666;BME280;58531;59.050;17.416;2022-12-11T00:28:42;100676.63;;;-6.37;100.00
12666;BME280;58531;59.050;17.416;2022-12-11T00:31:13;100671.88;;;-6.35;100.00
12666;BME280;58531;59.050;17.416;2022-12-11T00:33:42;100673.72;;;-6.35;100.00
12666;BME280;58531;59.050;17.416;2022-12-11T00:36:11;100667.75;;;-6.36;100.00
12666;BME280;58531;59.050;17.416;2022-12-11T00:38:38;100670.34;;;-6.36;100.00
12666;BME280;58531;59.050;17.416;2022-12-11T00:41:06;100671.88;;;-6.35;100.00
12666;BME280;58531;59.050;17.416;2022-12-11T00:43:33;100666.69;;;-6.35;100.00
12666;BME280;58531;59.050;17.416;2022-12-11T00:46:01;100664.09;;;-6.35;100.00
12666;BME280;58531;59.050;17.416;2022-12-11T00:48:28;100671.78;;;-6.38;100.00
12666;BME280;58531;59.050;17.416;2022-12-11T00:50:55;100669.06;;;-6.42;100.00
12666;BME280;58531;59.050;17.416;2022-12-11T00:53:22;100673.19;;;-6.41;100.00
12666;BME280;58531;59.050;17.416;2022-12-11T00:55:49;100680.34;;;-6.38;100.00
12666;BME280;58531;59.050;17.416;2022-12-11T00:58:17;100676.63;;;-6.37;100.00
12666;BME280;58531;59.050;17.416;2022-12-11T01:00:44;100676.53;;;-6.40;100.00
12666;BME280;58531;59.050;17.416;2022-12-11T01:03:14;100678.28;;;-6.32;100.00
12666;BME280;58531;59.050;17.416;2022-12-11T01:05:50;100680.34;;;-6.26;100.00
12666;BME280;58531;59.050;17.416;2022-12-11T01:08:17;100681.22;;;-6.22;100.00
12666;BME280;58531;59.050;17.416;2022-12-11T01:10:44;100684.47;;;-6.25;100.00
12666;BME280;58531;59.050;17.416;2022-12-11T01:13:11;100685.09;;;-6.28;100.00
12666;BME280;58531;59.050;17.416;2022-12-11T01:15:42;100682.31;;;-6.23;100.00
12666;BME280;58531;59.050;17.416;2022-12-11T01:18:12;100684.91;;;-6.23;100.00
12666;BME280;58531;59.050;17.416;2022-12-11T01:20:41;100685.25;;;-6.24;100.00
12666;BME280;58531;59.050;17.416;2022-12-11T01:23:11;100695.75;;;-6.21;100.00
12666;BME280;58531;59.050;17.416;2022-12-11T01:25:39;100682.53;;;-6.16;100.00
12666;BME280;58531;59.050;17.416;2022-12-11T01:28:06;100684.06;;;-6.15;100.00
12666;BME280;58531;59.050;17.416;2022-12-11T01:30:34;100686.22;;;-6.17;100.00
12666;BME280;58531;59.050;17.416;2022-12-11T01:33:01;100681.03;;;-6.17;100.00
12666;BME280;58531;59.050;17.416;2022-12-11T01:35:28;100684.06;;;-6.15;100.00
12666;BME280;58531;59.050;17.416;2022-12-11T01:37:57;100690.78;;;-6.14;100.00
12666;BME280;58531;59.050;17.416;2022-12-11T01:40:25;100691.41;;;-6.17;100.00
12666;BME280;58531;59.050;17.416;2022-12-11T01:42:52;100696.31;;;-6.15;100.00
12666;BME280;58531;59.050;17.416;2022-12-11T01:48:08;100705.97;;;-6.04;100.00
12666;BME280;58531;59.050;17.416;2022-12-11T01:50:40;100711.91;;;-6.03;100.00
12666;BME280;58531;59.050;17.416;2022-12-11T01:53:12;100708.22;;;-6.02;100.00
12666;BME280;58531;59.050;17.416;2022-12-11T01:55:40;100715.72;;;-6.01;100.00
12666;BME280;58531;59.050;17.416;2022-12-11T01:58:07;100712.34;;;-6.01;100.00
12666;BME280;58531;59.050;17.416;2022-12-11T02:00:36;100715.09;;;-5.98;100.00
12666;BME280;58531;59.050;17.416;2022-12-11T02:03:03;100710.31;;;-5.96;100.00
12666;BME280;58531;59.050;17.416;2022-12-11T02:05:30;100708.13;;;-6.06;100.00
12666;BME280;58531;59.050;17.416;2022-12-11T02:07:58;100701.84;;;-6.05;100.00
12666;BME280;58531;59.050;17.416;2022-12-11T02:10:39;100700.78;;;-6.04;100.00
12666;BME280;58531;59.050;17.416;2022-12-11T02:13:12;100706.19;;;-5.97;100.00
12666;BME280;58531;59.050;17.416;2022-12-11T02:15:46;100706.19;;;-5.97;100.00
12666;BME280;58531;59.050;17.416;2022-12-11T02:18:19;100702.19;;;-5.94;100.00
12666;BME280;58531;59.050;17.416;2022-12-11T02:20:54;100697.13;;;-5.91;100.00
12666;BME280;58531;59.050;17.416;2022-12-11T02:23:43;100693.75;;;-5.91;100.00
12666;BME280;58531;59.050;17.416;2022-12-11T02:26:29;100698.00;;;-5.87;100.00
12666;BME280;58531;59.050;17.416;2022-12-11T02:29:03;100699.16;;;-5.84;100.00
12666;BME280;58531;59.050;17.416;2022-12-11T02:31:34;100694.72;;;-5.84;100.00
12666;BME280;58531;59.050;17.416;2022-12-11T02:34:09;100693.63;;;-5.83;100.00
12666;BME280;58531;59.050;17.416;2022-12-11T02:36:41;100696.66;;;-5.81;100.00
12666;BME280;58531;59.050;17.416;2022-12-11T02:39:11;100695.16;;;-5.82;100.00
12666;BME280;58531;59.050;17.416;2022-12-11T02:41:43;100694.19;;;-5.78;100.00
12666;BME280;58531;59.050;17.416;2022-12-11T02:44:15;100691.91;;;-5.79;100.00
12666;BME280;58531;59.050;17.416;2022-12-11T02:46:44;100692.09;;;-5.72;100.00
12666;BME280;58531;59.050;17.416;2022-12-11T02:49:12;100698.38;;;-5.73;100.00
12666;BME280;58531;59.050;17.416;2022-12-11T02:51:42;100693.19;;;-5.73;100.00
12666;BME280;58531;59.050;17.416;2022-12-11T02:54:12;100696.22;;;-5.71;100.00
12666;BME280;58531;59.050;17.416;2022-12-11T02:56:43;100700.34;;;-5.70;100.00
12666;BME280;58531;59.050;17.416;2022-12-11T02:59:16;100695.03;;;-5.74;100.00
12666;BME280;58531;59.050;17.416;2022-12-11T03:01:45;100696.66;;;-5.69;100.00
12666;BME280;58531;59.050;17.416;2022-12-11T03:04:12;100697.94;;;-5.75;100.00
12666;BME280;58531;59.050;17.416;2022-12-11T03:06:42;100687.13;;;-5.77;100.00
12666;BME280;58531;59.050;17.416;2022-12-11T03:09:11;100697.50;;;-5.77;100.00
12666;BME280;58531;59.050;17.416;2022-12-11T03:11:38;100695.59;;;-5.80;100.00
12666;BME280;58531;59.050;17.416;2022-12-11T03:14:07;100689.72;;;-5.77;100.00
12666;BME280;58531;59.050;17.416;2022-12-11T03:16:37;100692.31;;;-5.77;100.00
12666;BME280;58531;59.050;17.416;2022-12-11T03:19:10;100690.09;;;-5.78;100.00
12666;BME280;58531;59.050;17.416;2022-12-11T03:21:43;100685.19;;;-5.80;100.00
12666;BME280;58531;59.050;17.416;2022-12-11T03:24:15;100685.28;;;-5.77;100.00
12666;BME280;58531;59.050;17.416;2022-12-11T03:26:53;100690.38;;;-5.80;100.00
12666;BME280;58531;59.050;17.416;2022-12-11T03:29:23;100689.72;;;-5.77;100.00
12666;BME280;58531;59.050;17.416;2022-12-11T03:31:57;100693.53;;;-5.75;100.00
12666;BME280;58531;59.050;17.416;2022-12-11T03:34:28;100696.88;;;-5.74;100.00
12666;BME280;58531;59.050;17.416;2022-12-11T03:36:57;100697.63;;;-5.74;100.00
12666;BME280;58531;59.050;17.416;2022-12-11T03:39:28;100698.72;;;-5.75;100.00
12666;BME280;58531;59.050;17.416;2022-12-11T03:41:58;100703.09;;;-5.78;100.00
12666;BME280;58531;59.050;17.416;2022-12-11T03:44:27;100695.69;;;-5.77;100.00
12666;BME280;58531;59.050;17.416;2022-12-11T03:46:59;100696.03;;;-5.78;100.00
12666;BME280;58531;59.050;17.416;2022-12-11T03:49:30;100700.25;;;-5.74;100.00
12666;BME280;58531;59.050;17.416;2022-12-11T03:52:00;100703.28;;;-5.72;100.00
12666;BME280;58531;59.050;17.416;2022-12-11T03:54:28;100704.66;;;-5.74;100.00
12666;BME280;58531;59.050;17.416;2022-12-11T03:56:57;100707.28;;;-5.74;100.00
12666;BME280;58531;59.050;17.416;2022-12-11T03:59:25;100704.59;;;-5.78;100.00
12666;BME280;58531;59.050;17.416;2022-12-11T04:01:54;100706.09;;;-5.77;100.00
12666;BME280;58531;59.050;17.416;2022-12-11T04:04:22;100707.06;;;-5.81;100.00
12666;BME280;58531;59.050;17.416;2022-12-11T04:06:49;100706.63;;;-5.83;100.00
12666;BME280;58531;59.050;17.416;2022-12-11T04:09:16;100710.00;;;-5.82;100.00
12666;BME280;58531;59.050;17.416;2022-12-11T04:11:42;100710.44;;;-5.80;100.00
12666;BME280;58531;59.050;17.416;2022-12-11T04:14:11;100713.13;;;-5.77;100.00
12666;BME280;58531;59.050;17.416;2022-12-11T04:16:57;100722.13;;;-5.75;100.00
12666;BME280;58531;59.050;17.416;2022-12-11T04:19:26;100722.44;;;-5.76;100.00
12666;BME280;58531;59.050;17.416;2022-12-11T04:22:11;100711.72;;;-5.75;100.00
12666;BME280;58531;59.050;17.416;2022-12-11T04:24:52;100710.09;;;-5.79;100.00
12666;BME280;58531;59.050;17.416;2022-12-11T04:27:19;100710.50;;;-5.77;100.00
12666;BME280;58531;59.050;17.416;2022-12-11T04:30:00;100715.31;;;-5.79;100.00
12666;BME280;58531;59.050;17.416;2022-12-11T04:32:26;100721.78;;;-5.73;100.00
12666;BME280;58531;59.050;17.416;2022-12-11T04:34:55;100717.47;;;-5.69;100.00
12666;BME280;58531;59.050;17.416;2022-12-11T04:37:21;100724.81;;;-5.71;100.00
12666;BME280;58531;59.050;17.416;2022-12-11T04:39:49;100724.19;;;-5.68;100.00
12666;BME280;58531;59.050;17.416;2022-12-11T04:42:16;100727.88;;;-5.69;100.00
12666;BME280;58531;59.050;17.416;2022-12-11T04:44:43;100728.75;;;-5.65;100.00
12666;BME280;58531;59.050;17.416;2022-12-11T04:47:10;100727.13;;;-5.70;100.00
12666;BME280;58531;59.050;17.416;2022-12-11T04:49:36;100725.91;;;-5.72;100.00
12666;BME280;58531;59.050;17.416;2022-12-11T04:52:05;100727.00;;;-5.73;100.00
12666;BME280;58531;59.050;17.416;2022-12-11T04:54:32;100730.38;;;-5.73;100.00
12666;BME280;58531;59.050;17.416;2022-12-11T04:56:59;100730.81;;;-5.71;100.00
12666;BME280;58531;59.050;17.416;2022-12-11T04:59:26;100730.66;;;-5.74;100.00
12666;BME280;58531;59.050;17.416;2022-12-11T05:01:54;100735.88;;;-5.74;100.00
12666;BME280;58531;59.050;17.416;2022-12-11T05:04:21;100732.00;;;-5.80;100.00
12666;BME280;58531;59.050;17.416;2022-12-11T05:06:49;100724.72;;;-5.86;100.00
12666;BME280;58531;59.050;17.416;2022-12-11T05:09:17;100721.25;;;-5.90;100.00
12666;BME280;58531;59.050;17.416;2022-12-11T05:11:44;100727.66;;;-5.88;100.00
12666;BME280;58531;59.050;17.416;2022-12-11T05:14:11;100725.16;;;-5.84;100.00
12666;BME280;58531;59.050;17.416;2022-12-11T05:16:38;100734.38;;;-5.87;100.00
12666;BME280;58531;59.050;17.416;2022-12-11T05:19:05;100733.06;;;-5.81;100.00
12666;BME280;58531;59.050;17.416;2022-12-11T05:21:32;100735.66;;;-5.81;100.00
12666;BME280;58531;59.050;17.416;2022-12-11T05:23:59;100736.09;;;-5.79;100.00
12666;BME280;58531;59.050;17.416;2022-12-11T05:26:27;100737.19;;;-5.80;100.00
12666;BME280;58531;59.050;17.416;2022-12-11T05:28:54;100742.38;;;-5.80;100.00
12666;BME280;58531;59.050;17.416;2022-12-11T05:31:23;100740.63;;;-5.76;100.00
12666;BME280;58531;59.050;17.416;2022-12-11T05:33:52;100734.34;;;-5.75;100.00
12666;BME280;58531;59.050;17.416;2022-12-11T05:36:21;100738.03;;;-5.76;100.00
12666;BME280;58531;59.050;17.416;2022-12-11T05:38:48;100749.75;;;-5.70;100.00
12666;BME280;58531;59.050;17.416;2022-12-11T05:41:17;100748.44;;;-5.76;100.00
12666;BME280;58531;59.050;17.416;2022-12-11T05:43:46;100750.84;;;-5.71;100.00
12666;BME280;58531;59.050;17.416;2022-12-11T05:46:15;100749.44;;;-5.69;100.00
12666;BME280;58531;59.050;17.416;2022-12-11T05:48:44;100748.66;;;-5.69;100.00
12666;BME280;58531;59.050;17.416;2022-12-11T05:51:12;100740.13;;;-5.70;100.00
12666;BME280;58531;59.050;17.416;2022-12-11T05:53:41;100738.91;;;-5.72;100.00
12666;BME280;58531;59.050;17.416;2022-12-11T05:56:10;100748.44;;;-5.76;100.00
12666;BME280;58531;59.050;17.416;2022-12-11T05:58:38;100742.59;;;-5.73;100.00
12666;BME280;58531;59.050;17.416;2022-12-11T06:01:08;100745.63;;;-5.71;100.00
12666;BME280;58531;59.050;17.416;2022-12-11T06:03:36;100743.47;;;-5.69;100.00
12666;BME280;58531;59.050;17.416;2022-12-11T06:06:04;100744.13;;;-5.72;100.00
12666;BME280;58531;59.050;17.416;2022-12-11T06:08:32;100749.88;;;-5.67;100.00
12666;BME280;58531;59.050;17.416;2022-12-11T06:11:00;100749.53;;;-5.65;100.00
12666;BME280;58531;59.050;17.416;2022-12-11T06:13:26;100749.53;;;-5.65;100.00
12666;BME280;58531;59.050;17.416;2022-12-11T06:15:53;100758.44;;;-5.66;100.00
12666;BME280;58531;59.050;17.416;2022-12-11T06:18:22;100757.03;;;-5.64;100.00
12666;BME280;58531;59.050;17.416;2022-12-11T06:20:49;100754.53;;;-5.60;100.00
12666;BME280;58531;59.050;17.416;2022-12-11T06:23:15;100756.50;;;-5.57;100.00
12666;BME280;58531;59.050;17.416;2022-12-11T06:25:42;100759.75;;;-5.60;100.00
12666;BME280;58531;59.050;17.416;2022-12-11T06:28:09;100766.91;;;-5.57;100.00
12666;BME280;58531;59.050;17.416;2022-12-11T06:30:36;100773.72;;;-5.53;100.00
12666;BME280;58531;59.050;17.416;2022-12-11T06:33:06;100775.56;;;-5.53;100.00
12666;BME280;58531;59.050;17.416;2022-12-11T06:35:34;100771.56;;;-5.51;100.00
12666;BME280;58531;59.050;17.416;2022-12-11T06:38:02;100772.88;;;-5.45;100.00
12666;BME280;58531;59.050;17.416;2022-12-11T06:40:30;100773.63;;;-5.44;100.00
12666;BME280;58531;59.050;17.416;2022-12-11T06:42:58;100772.34;;;-5.38;100.00
12666;BME280;58531;59.050;17.416;2022-12-11T06:45:25;100775.69;;;-5.38;100.00
12666;BME280;58531;59.050;17.416;2022-12-11T06:47:52;100775.16;;;-5.31;100.00
12666;BME280;58531;59.050;17.416;2022-12-11T06:50:20;100782.72;;;-5.26;100.00
12666;BME280;58531;59.050;17.416;2022-12-11T06:52:48;100781.22;;;-5.27;100.00
12666;BME280;58531;59.050;17.416;2022-12-11T06:55:16;100787.72;;;-5.21;100.00
12666;BME280;58531;59.050;17.416;2022-12-11T06:57:43;100790.75;;;-5.19;100.00
12666;BME280;58531;59.050;17.416;2022-12-11T07:00:10;100791.09;;;-5.21;100.00
12666;BME280;58531;59.050;17.416;2022-12-11T07:02:37;100789.25;;;-5.20;100.00
12666;BME280;58531;59.050;17.416;2022-12-11T07:05:05;100798.69;;;-5.16;100.00
12666;BME280;58531;59.050;17.416;2022-12-11T07:07:32;100799.44;;;-5.15;100.00
12666;BME280;58531;59.050;17.416;2022-12-11T07:10:01;100802.28;;;-5.08;100.00
12666;BME280;58531;59.050;17.416;2022-12-11T07:12:29;100807.25;;;-5.03;100.00
12666;BME280;58531;59.050;17.416;2022-12-11T07:14:56;100808.78;;;-5.02;100.00
12666;BME280;58531;59.050;17.416;2022-12-11T07:17:23;100806.59;;;-5.00;100.00
12666;BME280;58531;59.050;17.416;2022-12-11T07:19:50;100812.91;;;-4.89;100.00
12666;BME280;58531;59.050;17.416;2022-12-11T07:22:17;100812.13;;;-4.90;100.00
12666;BME280;58531;59.050;17.416;2022-12-11T07:24:44;100812.69;;;-4.96;100.00
12666;BME280;58531;59.050;17.416;2022-12-11T07:27:12;100820.72;;;-4.89;100.00
12666;BME280;58531;59.050;17.416;2022-12-11T07:29:39;100821.81;;;-4.90;100.00
12666;BME280;58531;59.050;17.416;2022-12-11T07:32:06;100827.66;;;-4.93;100.00
12666;BME280;58531;59.050;17.416;2022-12-11T07:34:33;100822.44;;;-4.93;100.00
12666;BME280;58531;59.050;17.416;2022-12-11T07:36:59;100819.06;;;-4.94;100.00
12666;BME280;58531;59.050;17.416;2022-12-11T07:39:26;100823.31;;;-4.89;100.00
12666;BME280;58531;59.050;17.416;2022-12-11T07:41:53;100821.16;;;-4.87;100.00
12666;BME280;58531;59.050;17.416;2022-12-11T07:44:21;100821.59;;;-4.85;100.00
12666;BME280;58531;59.050;17.416;2022-12-11T07:46:48;100823.09;;;-4.84;100.00
12666;BME280;58531;59.050;17.416;2022-12-11T07:49:14;100820.50;;;-4.84;100.00
12666;BME280;58531;59.050;17.416;2022-12-11T07:51:42;100827.75;;;-4.90;100.00
12666;BME280;58531;59.050;17.416;2022-12-11T07:54:12;100817.47;;;-4.86;100.00
12666;BME280;58531;59.050;17.416;2022-12-11T07:56:41;100824.19;;;-4.85;100.00
12666;BME280;58531;59.050;17.416;2022-12-11T07:59:08;100827.19;;;-4.83;100.00
12666;BME280;58531;59.050;17.416;2022-12-11T08:01:37;100825.72;;;-4.84;100.00
12666;BME280;58531;59.050;17.416;2022-12-11T08:04:06;100830.22;;;-4.81;100.00
12666;BME280;58531;59.050;17.416;2022-12-11T08:06:35;100821.25;;;-4.84;100.00
12666;BME280;58531;59.050;17.416;2022-12-11T08:09:04;100821.34;;;-4.80;100.00
12666;BME280;58531;59.050;17.416;2022-12-11T08:11:31;100824.59;;;-4.83;100.00
12666;BME280;58531;59.050;17.416;2022-12-11T08:13:58;100832.41;;;-4.83;100.00
12666;BME280;58531;59.050;17.416;2022-12-11T08:16:27;100836.22;;;-4.81;100.00
12666;BME280;58531;59.050;17.416;2022-12-11T08:18:55;100832.31;;;-4.75;100.00
12666;BME280;58531;59.050;17.416;2022-12-11T08:21:23;100832.31;;;-4.75;100.00
12666;BME280;58531;59.050;17.416;2022-12-11T08:23:51;100832.41;;;-4.71;100.00
12666;BME280;58531;59.050;17.416;2022-12-11T08:26:20;100832.63;;;-4.76;100.00
12666;BME280;58531;59.050;17.416;2022-12-11T08:28:47;100838.69;;;-4.72;100.00
12666;BME280;58531;59.050;17.416;2022-12-11T08:31:14;100848.47;;;-4.69;100.00
12666;BME280;58531;59.050;17.416;2022-12-11T08:33:42;100847.06;;;-4.67;100.00
12666;BME280;58531;59.050;17.416;2022-12-11T08:36:12;100853.13;;;-4.63;100.00
12666;BME280;58531;59.050;17.416;2022-12-11T08:38:40;100858.22;;;-4.55;100.00
12666;BME280;58531;59.050;17.416;2022-12-11T08:41:07;100858.00;;;-4.50;100.00
12666;BME280;58531;59.050;17.416;2022-12-11T08:43:34;100849.19;;;-4.45;100.00
12666;BME280;58531;59.050;17.416;2022-12-11T08:46:01;100851.28;;;-4.51;100.00
12666;BME280;58531;59.050;17.416;2022-12-11T08:48:28;100846.81;;;-4.50;100.00
12666;BME280;58531;59.050;17.416;2022-12-11T08:50:58;100853.75;;;-4.54;100.00
12666;BME280;58531;59.050;17.416;2022-12-11T08:53:26;100850.19;;;-4.50;100.00
12666;BME280;58531;59.050;17.416;2022-12-11T08:55:53;100846.81;;;-4.50;100.00
12666;BME280;58531;59.050;17.416;2022-12-11T08:58:19;100848.66;;;-4.51;100.00
12666;BME280;58531;59.050;17.416;2022-12-11T09:00:46;100855.41;;;-4.50;100.00
12666;BME280;58531;59.050;17.416;2022-12-11T09:03:13;100859.63;;;-4.45;100.00
12666;BME280;58531;59.050;17.416;2022-12-11T09:05:40;100855.19;;;-4.45;100.00
12666;BME280;58531;59.050;17.416;2022-12-11T09:08:06;100849.97;;;-4.45;100.00
12666;BME280;58531;59.050;17.416;2022-12-11T09:10:34;100861.91;;;-4.44;100.00
12666;BME280;58531;59.050;17.416;2022-12-11T09:13:01;100854.19;;;-4.52;100.00
12666;BME280;58531;59.050;17.416;2022-12-11T09:15:28;100863.22;;;-4.50;100.00
12666;BME280;58531;59.050;17.416;2022-12-11T09:17:55;100859.94;;;-4.47;100.00
12666;BME280;58531;59.050;17.416;2022-12-11T09:20:21;100865.25;;;-4.43;100.00
12666;BME280;58531;59.050;17.416;2022-12-11T09:22:48;100863.63;;;-4.36;100.00
12666;BME280;58531;59.050;17.416;2022-12-11T09:25:15;100868.84;;;-4.36;100.00
12666;BME280;58531;59.050;17.416;2022-12-11T09:27:43;100870.25;;;-4.38;100.00
12666;BME280;58531;59.050;17.416;2022-12-11T09:30:10;100863.44;;;-4.43;100.00
12666;BME280;58531;59.050;17.416;2022-12-11T09:32:37;100854.31;;;-4.49;100.00
12666;BME280;58531;59.050;17.416;2022-12-11T09:35:06;100866.25;;;-4.48;100.00
12666;BME280;58531;59.050;17.416;2022-12-11T09:37:33;100867.31;;;-4.37;100.00
12666;BME280;58531;59.050;17.416;2022-12-11T09:40:00;100859.25;;;-4.32;100.00
12666;BME280;58531;59.050;17.416;2022-12-11T09:42:31;100862.84;;;-4.36;100.00
12666;BME280;58531;59.050;17.416;2022-12-11T09:45:13;100851.13;;;-4.30;100.00
12666;BME280;58531;59.050;17.416;2022-12-11T09:47:42;100871.09;;;-4.34;100.00
12666;BME280;58531;59.050;17.416;2022-12-11T09:50:14;100868.16;;;-4.33;100.00
12666;BME280;58531;59.050;17.416;2022-12-11T09:52:53;100868.84;;;-4.36;100.00
12666;BME280;58531;59.050;17.416;2022-12-11T09:55:24;100862.84;;;-4.36;100.00
12666;BME280;58531;59.050;17.416;2022-12-11T09:57:59;100861.25;;;-4.41;100.00
12666;BME280;58531;59.050;17.416;2022-12-11T10:00:36;100861.03;;;-4.36;100.00
12666;BME280;58531;59.050;17.416;2022-12-11T10:06:02;100855.41;;;-4.10;100.00
12666;BME280;58531;59.050;17.416;2022-12-11T10:08:39;100855.03;;;-3.97;100.00
12666;BME280;58531;59.050;17.416;2022-12-11T10:11:25;100853.41;;;-4.01;100.00
12666;BME280;58531;59.050;17.416;2022-12-11T10:14:03;100848.38;;;-4.22;100.00
12666;BME280;58531;59.050;17.416;2022-12-11T10:16:39;100844.91;;;-4.26;100.00
12666;BME280;58531;59.050;17.416;2022-12-11T10:19:10;100852.28;;;-4.28;100.00
12666;BME280;58531;59.050;17.416;2022-12-11T10:21:41;100856.63;;;-4.20;100.00
12666;BME280;58531;59.050;17.416;2022-12-11T10:24:15;100851.91;;;-4.42;100.00
12666;BME280;58531;59.050;17.416;2022-12-11T10:26:45;100853.66;;;-4.58;100.00
12666;BME280;58531;59.050;17.416;2022-12-11T10:29:14;100852.28;;;-4.67;100.00
12666;BME280;58531;59.050;17.416;2022-12-11T10:31:47;100847.72;;;-4.70;100.00
12666;BME280;58531;59.050;17.416;2022-12-11T10:34:21;100858.44;;;-4.60;100.00
12666;BME280;58531;59.050;17.416;2022-12-11T10:36:53;100860.41;;;-4.57;100.00
12666;BME280;58531;59.050;17.416;2022-12-11T10:39:21;100870.81;;;-4.45;100.00
12666;BME280;58531;59.050;17.416;2022-12-11T10:41:49;100874.94;;;-4.56;100.00
12666;BME280;58531;59.050;17.416;2022-12-11T10:44:18;100876.47;;;-4.78;100.00
12666;BME280;58531;59.050;17.416;2022-12-11T10:46:48;100871.72;;;-4.88;100.00
12666;BME280;58531;59.050;17.416;2022-12-11T10:49:27;100870.63;;;-4.99;100.00
12666;BME280;58531;59.050;17.416;2022-12-11T10:51:56;100866.69;;;-5.05;100.00
12666;BME280;58531;59.050;17.416;2022-12-11T10:54:30;100874.41;;;-4.97;100.00
12666;BME280;58531;59.050;17.416;2022-12-11T10:56:59;100879.31;;;-4.95;100.00
12666;BME280;58531;59.050;17.416;2022-12-11T10:59:32;100875.38;;;-5.01;100.00
12666;BME280;58531;59.050;17.416;2022-12-11T11:02:04;100875.91;;;-4.96;100.00
12666;BME280;58531;59.050;17.416;2022-12-11T11:04:34;100876.47;;;-4.90;100.00
12666;BME280;58531;59.050;17.416;2022-12-11T11:07:03;100881.47;;;-4.97;100.00
12666;BME280;58531;59.050;17.416;2022-12-11T11:09:36;100873.66;;;-4.97;100.00
12666;BME280;58531;59.050;17.416;2022-12-11T11:12:17;100884.06;;;-4.97;100.00
12666;BME280;58531;59.050;17.416;2022-12-11T11:14:44;100880.25;;;-5.00;100.00
12666;BME280;58531;59.050;17.416;2022-12-11T11:17:15;100878.97;;;-4.94;100.00
12666;BME280;58531;59.050;17.416;2022-12-11T11:19:45;100881.69;;;-4.90;100.00
12666;BME280;58531;59.050;17.416;2022-12-11T11:22:15;100884.28;;;-4.78;100.00
12666;BME280;58531;59.050;17.416;2022-12-11T11:24:44;100879.19;;;-4.75;100.00
12666;BME280;58531;59.050;17.416;2022-12-11T11:27:27;100882.75;;;-4.68;100.00
12666;BME280;58531;59.050;17.416;2022-12-11T11:29:58;100871.47;;;-4.71;100.00
12666;BME280;58531;59.050;17.416;2022-12-11T11:32:31;100871.25;;;-4.78;100.00
12666;BME280;58531;59.050;17.416;2022-12-11T11:35:16;100872.34;;;-4.79;100.00
12666;BME280;58531;59.050;17.416;2022-12-11T11:37:45;100872.13;;;-4.74;100.00
12666;BME280;58531;59.050;17.416;2022-12-11T11:40:16;100873.34;;;-4.72;100.00
12666;BME280;58531;59.050;17.416;2022-12-11T11:42:49;100872.56;;;-4.72;100.00
12666;BME280;58531;59.050;17.416;2022-12-11T11:45:23;100866.91;;;-4.74;100.00
12666;BME280;58531;59.050;17.416;2022-12-11T11:47:58;100868.34;;;-4.77;100.00
12666;BME280;58531;59.050;17.416;2022-12-11T11:50:31;100862.69;;;-4.79;100.00
12666;BME280;58531;59.050;17.416;2022-12-11T11:53:03;100867.25;;;-4.76;100.00
12666;BME280;58531;59.050;17.416;2022-12-11T11:55:38;100858.44;;;-4.71;100.00
12666;BME280;58531;59.050;17.416;2022-12-11T11:58:11;100852.06;;;-4.74;100.00
12666;BME280;58531;59.050;17.416;2022-12-11T12:00:39;100845.84;;;-4.81;100.00
12666;BME280;58531;59.050;17.416;2022-12-11T12:03:10;100843.50;;;-4.86;100.00
12666;BME280;58531;59.050;17.416;2022-12-11T12:05:42;100844.47;;;-4.91;100.00
12666;BME280;58531;59.050;17.416;2022-12-11T12:08:15;100841.97;;;-4.87;100.00
12666;BME280;58531;59.050;17.416;2022-12-11T12:10:46;100845.44;;;-4.83;100.00
12666;BME280;58531;59.050;17.416;2022-12-11T12:13:22;100849.56;;;-4.82;100.00
12666;BME280;58531;59.050;17.416;2022-12-11T12:15:55;100845.22;;;-4.78;100.00
12666;BME280;58531;59.050;17.416;2022-12-11T12:18:30;100846.50;;;-4.72;100.00
12666;BME280;58531;59.050;17.416;2022-12-11T12:21:11;100850.63;;;-4.71;100.00
12666;BME280;58531;59.050;17.416;2022-12-11T12:23:52;100848.38;;;-4.73;100.00
12666;BME280;58531;59.050;17.416;2022-12-11T12:26:27;100849.56;;;-4.70;100.00
12666;BME280;58531;59.050;17.416;2022-12-11T12:29:03;100855.63;;;-4.78;100.00
12666;BME280;58531;59.050;17.416;2022-12-11T12:31:54;100850.84;;;-4.76;100.00
12666;BME280;58531;59.050;17.416;2022-12-11T12:34:37;100847.59;;;-4.73;100.00
12666;BME280;58531;59.050;17.416;2022-12-11T12:37:11;100847.28;;;-4.72;100.00
12666;BME280;58531;59.050;17.416;2022-12-11T12:39:50;100844.34;;;-4.82;100.00
12666;BME280;58531;59.050;17.416;2022-12-11T12:42:25;100840.56;;;-4.85;100.00
12666;BME280;58531;59.050;17.416;2022-12-11T12:45:00;100841.44;;;-4.81;100.00
12666;BME280;58531;59.050;17.416;2022-12-11T12:47:31;100841.09;;;-4.79;100.00
12666;BME280;58531;59.050;17.416;2022-12-11T12:50:03;100835.00;;;-4.83;100.00